createdAt,value
2023-06-07T00:03:49.741Z,16.61
2023-06-07T00:08:57.629Z,16.46
2023-06-07T00:14:05.551Z,16.31
2023-06-07T00:19:14.310Z,16.17
2023-06-07T00:24:22.519Z,16.03
2023-06-07T00:29:30.194Z,15.93
2023-06-07T00:34:37.779Z,15.86
2023-06-07T00:39:45.444Z,15.79
2023-06-07T00:44:53.097Z,15.73
2023-06-07T00:50:01.467Z,15.68
2023-06-07T00:55:11.165Z,15.63
2023-06-07T01:00:19.435Z,15.59
2023-06-07T01:05:27.197Z,15.55
2023-06-07T01:10:34.918Z,15.52
2023-06-07T01:15:43.309Z,15.51
2023-06-07T01:20:56.377Z,15.50
2023-06-07T01:26:05.478Z,15.50
2023-06-07T01:31:14.404Z,15.52
2023-06-07T01:36:22.743Z,15.55
2023-06-07T01:41:31.035Z,15.58
2023-06-07T01:46:40.050Z,15.60
2023-06-07T01:51:48.042Z,15.61
2023-06-07T01:57:09.361Z,15.63
2023-06-07T02:02:25.996Z,15.66
2023-06-07T02:07:42.165Z,15.69
2023-06-07T02:12:51.914Z,15.73
2023-06-07T02:18:02.664Z,15.76
2023-06-07T02:23:10.907Z,15.78
2023-06-07T02:28:19.028Z,15.80
2023-06-07T02:33:26.835Z,15.81
2023-06-07T02:38:34.450Z,15.80
2023-06-07T02:43:42.079Z,15.80
2023-06-07T02:48:49.969Z,15.81
2023-06-07T02:53:57.554Z,15.81
2023-06-07T02:59:05.162Z,15.85
2023-06-07T03:04:12.832Z,15.90
2023-06-07T03:09:21.128Z,15.96
2023-06-07T03:14:28.842Z,16.07
2023-06-07T03:19:36.450Z,16.18
2023-06-07T03:24:44.842Z,16.33
2023-06-07T03:29:52.570Z,16.50
2023-06-07T03:35:00.268Z,16.70
2023-06-07T03:40:10.558Z,16.95
2023-06-07T03:45:18.260Z,17.18
2023-06-07T03:50:26.020Z,17.41
2023-06-07T03:55:34.607Z,17.64
2023-06-07T04:00:42.680Z,17.88
2023-06-07T04:05:51.023Z,18.14
2023-06-07T04:10:58.640Z,18.42
2023-06-07T04:16:07.062Z,18.70
2023-06-07T04:21:15.731Z,18.99
2023-06-07T04:26:25.105Z,19.24
2023-06-07T04:31:35.605Z,19.43
2023-06-07T04:36:43.481Z,19.64
2023-06-07T04:41:54.425Z,19.87
2023-06-07T04:47:08.103Z,20.10
2023-06-07T04:52:21.000Z,20.30
2023-06-07T04:57:28.786Z,20.46
2023-06-07T05:02:42.655Z,20.60
2023-06-07T05:07:51.014Z,20.70
2023-06-07T05:12:58.844Z,20.80
2023-06-07T05:18:08.649Z,20.89
2023-06-07T05:23:18.184Z,21.00
2023-06-07T05:28:26.044Z,21.14
2023-06-07T05:33:34.079Z,21.29
2023-06-07T05:38:42.044Z,21.44
2023-06-07T05:43:49.645Z,21.58
2023-06-07T05:48:57.253Z,21.74
2023-06-07T05:54:06.864Z,21.88
2023-06-07T05:59:14.495Z,22.03
2023-06-07T06:04:22.095Z,22.23
2023-06-07T06:09:29.880Z,22.49
2023-06-07T06:14:37.498Z,22.77
2023-06-07T06:19:45.146Z,23.04
2023-06-07T06:24:52.852Z,23.37
2023-06-07T06:30:00.827Z,23.63
2023-06-07T06:35:10.046Z,23.86
2023-06-07T06:40:19.844Z,23.98
2023-06-07T06:45:27.549Z,24.00
2023-06-07T06:50:35.793Z,24.22
2023-06-07T06:55:43.639Z,24.56
2023-06-07T07:00:51.436Z,24.82
2023-06-07T07:05:59.248Z,25.15
2023-06-07T07:11:07.033Z,25.54
2023-06-07T07:16:14.728Z,25.82
2023-06-07T07:21:22.601Z,26.10
2023-06-07T07:26:30.215Z,26.38
2023-06-07T07:31:38.309Z,26.62
2023-06-07T07:36:46.153Z,26.92
2023-06-07T07:41:53.772Z,27.25
2023-06-07T07:47:01.412Z,27.34
2023-06-07T07:52:09.878Z,27.39
2023-06-07T07:57:17.524Z,27.40
2023-06-07T08:02:25.259Z,27.56
2023-06-07T08:07:33.494Z,27.95
2023-06-07T08:12:41.186Z,28.22
2023-06-07T08:17:51.357Z,28.23
2023-06-07T08:22:59.318Z,28.16
2023-06-07T08:28:07.419Z,28.30
2023-06-07T08:33:15.698Z,28.64
2023-06-07T08:38:23.319Z,28.92
2023-06-07T08:43:31.035Z,28.81
2023-06-07T08:48:40.789Z,28.98
2023-06-07T08:53:56.628Z,29.32
2023-06-07T08:59:06.083Z,29.51
2023-06-07T09:04:14.440Z,29.73
2023-06-07T09:09:22.304Z,29.69
2023-06-07T09:14:31.464Z,29.70
2023-06-07T09:19:40.736Z,29.83
2023-06-07T09:24:48.537Z,29.76
2023-06-07T09:30:07.137Z,29.82
2023-06-07T09:35:17.255Z,29.83
2023-06-07T09:40:25.609Z,30.09
2023-06-07T09:45:33.829Z,30.36
2023-06-07T09:50:56.156Z,30.52
2023-06-07T09:56:19.809Z,30.86
2023-06-07T10:01:39.194Z,31.21
2023-06-07T10:06:50.901Z,31.40
2023-06-07T10:11:59.742Z,31.63
2023-06-07T10:17:11.687Z,31.61
2023-06-07T10:22:23.646Z,31.73
2023-06-07T10:27:36.498Z,31.95
2023-06-07T10:32:45.510Z,31.97
2023-06-07T10:37:55.052Z,31.98
2023-06-07T10:43:03.989Z,32.03
2023-06-07T10:48:36.111Z,31.89
2023-06-07T10:53:55.604Z,31.79
2023-06-07T10:59:23.485Z,32.16
2023-06-07T11:04:58.352Z,32.30
2023-06-07T11:10:36.497Z,32.00
2023-06-07T11:15:44.328Z,31.71
2023-06-07T11:20:53.655Z,31.78
2023-06-07T11:26:09.639Z,32.20
2023-06-07T11:31:17.952Z,32.70
2023-06-07T11:36:25.732Z,33.04
2023-06-07T11:41:33.607Z,33.08
2023-06-07T11:46:41.390Z,33.13
2023-06-07T11:51:52.245Z,33.30
2023-06-07T11:57:00.180Z,32.91
2023-06-07T12:02:10.100Z,32.75
2023-06-07T12:07:32.998Z,32.86
2023-06-07T12:12:41.668Z,33.14
2023-06-07T12:17:49.326Z,33.33
2023-06-07T12:23:05.736Z,33.47
2023-06-07T12:28:14.102Z,32.90
2023-06-07T12:33:23.429Z,32.80
2023-06-07T12:38:33.235Z,33.01
2023-06-07T12:43:46.730Z,33.32
2023-06-07T12:48:54.826Z,33.30
2023-06-07T12:54:02.520Z,33.29
2023-06-07T12:59:10.213Z,33.04
2023-06-07T13:04:18.083Z,33.01
2023-06-07T13:09:25.805Z,32.97
2023-06-07T13:14:33.548Z,32.88
2023-06-07T13:19:41.801Z,33.02
2023-06-07T13:24:49.495Z,32.96
2023-06-07T13:29:57.875Z,32.97
2023-06-07T13:35:05.866Z,32.89
2023-06-07T13:40:14.524Z,32.47
2023-06-07T13:45:22.741Z,32.26
2023-06-07T13:50:31.854Z,32.10
2023-06-07T13:55:39.495Z,31.80
2023-06-07T14:00:47.113Z,31.54
2023-06-07T14:05:54.821Z,31.59
2023-06-07T14:11:04.052Z,31.87
2023-06-07T14:16:13.271Z,32.03
2023-06-07T14:21:21.220Z,31.92
2023-06-07T14:26:28.915Z,31.49
2023-06-07T14:31:36.615Z,31.13
2023-06-07T14:36:45.559Z,30.76
2023-06-07T14:41:53.257Z,30.77
2023-06-07T14:47:01.537Z,30.87
2023-06-07T14:52:09.793Z,31.03
2023-06-07T14:57:17.861Z,31.26
2023-06-07T15:02:25.627Z,31.41
2023-06-07T15:07:33.311Z,31.57
2023-06-07T15:12:41.300Z,31.78
2023-06-07T15:17:51.745Z,31.83
2023-06-07T15:23:00.207Z,31.74
2023-06-07T15:28:08.875Z,31.51
2023-06-07T15:33:16.573Z,31.42
2023-06-07T15:38:24.390Z,31.35
2023-06-07T15:43:32.070Z,31.32
2023-06-07T15:48:39.836Z,31.28
2023-06-07T15:53:47.884Z,31.11
2023-06-07T15:58:55.523Z,30.86
2023-06-07T16:04:04.736Z,30.74
2023-06-07T16:09:12.551Z,30.60
2023-06-07T16:14:20.602Z,30.47
2023-06-07T16:19:28.255Z,30.34
2023-06-07T16:24:36.169Z,30.12
2023-06-07T16:29:43.813Z,29.84
2023-06-07T16:34:51.513Z,29.59
2023-06-07T16:39:59.222Z,29.39
2023-06-07T16:45:09.684Z,29.23
2023-06-07T16:50:17.690Z,29.06
2023-06-07T16:55:25.544Z,28.92
2023-06-07T17:00:33.231Z,28.79
2023-06-07T17:05:40.990Z,28.65
2023-06-07T17:10:49.409Z,28.54
2023-06-07T17:15:58.108Z,28.43
2023-06-07T17:21:06.692Z,28.30
2023-06-07T17:26:14.967Z,28.12
2023-06-07T17:31:22.664Z,27.92
2023-06-07T17:36:30.310Z,27.73
2023-06-07T17:41:38.015Z,27.57
2023-06-07T17:46:47.060Z,27.41
2023-06-07T17:51:58.397Z,27.23
2023-06-07T17:57:09.326Z,27.06
2023-06-07T18:02:17.105Z,26.88
2023-06-07T18:07:24.861Z,26.65
2023-06-07T18:12:32.512Z,26.38
2023-06-07T18:17:40.200Z,26.06
2023-06-07T18:22:48.023Z,25.73
2023-06-07T18:27:55.626Z,25.39
2023-06-07T18:33:03.765Z,25.03
2023-06-07T18:38:11.553Z,24.68
2023-06-07T18:43:19.291Z,24.33
2023-06-07T18:48:28.084Z,23.99
2023-06-07T18:53:36.532Z,23.64
2023-06-07T18:58:46.568Z,23.28
2023-06-07T19:03:54.605Z,22.96
2023-06-07T19:09:02.493Z,22.65
2023-06-07T19:14:10.897Z,22.35
2023-06-07T19:19:18.603Z,22.09
2023-06-07T19:24:26.356Z,21.85
2023-06-07T19:29:34.147Z,21.61
2023-06-07T19:34:42.583Z,21.36
2023-06-07T19:39:50.621Z,21.12
2023-06-07T19:44:58.329Z,20.87
2023-06-07T19:50:07.836Z,20.66
2023-06-07T19:55:16.542Z,20.45
2023-06-07T20:00:24.362Z,20.21
2023-06-07T20:05:32.069Z,19.99
2023-06-07T20:10:39.717Z,19.81
2023-06-07T20:15:47.461Z,19.62
2023-06-07T20:20:55.135Z,19.41
2023-06-07T20:26:02.765Z,19.21
2023-06-07T20:31:10.455Z,19.01
2023-06-07T20:36:18.125Z,18.84
2023-06-07T20:41:26.846Z,18.69
2023-06-07T20:46:34.931Z,18.55
2023-06-07T20:51:42.813Z,18.40
2023-06-07T20:56:51.097Z,18.25
2023-06-07T21:01:58.867Z,18.10
2023-06-07T21:07:07.219Z,17.97
2023-06-07T21:12:14.936Z,17.83
2023-06-07T21:17:22.810Z,17.70
2023-06-07T21:22:30.579Z,17.56
2023-06-07T21:27:38.350Z,17.42
2023-06-07T21:32:46.058Z,17.29
2023-06-07T21:37:53.771Z,17.17
2023-06-07T21:43:01.440Z,17.06
2023-06-07T21:48:09.264Z,16.95
2023-06-07T21:53:16.933Z,16.83
2023-06-07T21:58:24.962Z,16.73
2023-06-07T22:03:33.622Z,16.63
2023-06-07T22:08:41.272Z,16.54
2023-06-07T22:13:48.914Z,16.44
2023-06-07T22:18:56.561Z,16.35
2023-06-07T22:24:04.874Z,16.25
2023-06-07T22:29:14.017Z,16.16
2023-06-07T22:34:22.576Z,16.09
2023-06-07T22:39:30.188Z,16.03
2023-06-07T22:44:39.224Z,15.93
2023-06-07T22:49:46.833Z,15.78
2023-06-07T22:54:54.458Z,15.72
2023-06-07T23:00:04.147Z,15.68
2023-06-07T23:05:19.133Z,15.62
2023-06-07T23:10:35.612Z,15.55
2023-06-07T23:15:46.384Z,15.49
2023-06-07T23:20:54.440Z,15.43
2023-06-07T23:26:02.144Z,15.35
2023-06-07T23:31:09.773Z,15.27
2023-06-07T23:36:17.710Z,15.19
2023-06-07T23:41:25.384Z,15.10
2023-06-07T23:46:33.082Z,15.03
2023-06-07T23:51:40.752Z,14.97
2023-06-07T23:56:48.639Z,14.91
